createdAt,value
2019-01-13T00:01:16.535Z,165.27
2019-01-13T00:05:25.757Z,163.87
2019-01-13T00:09:35.092Z,165.70
2019-01-13T00:13:44.335Z,166.70
2019-01-13T00:17:53.552Z,161.60
2019-01-13T00:22:03.015Z,165.73
2019-01-13T00:26:12.258Z,166.43
2019-01-13T00:30:21.481Z,167.00
2019-01-13T00:34:30.787Z,169.93
2019-01-13T00:38:41.316Z,165.43
2019-01-13T00:42:50.713Z,159.70
2019-01-13T00:46:59.954Z,161.43
2019-01-13T00:51:09.197Z,161.17
2019-01-13T00:55:18.436Z,160.50
2019-01-13T00:59:27.677Z,160.07
2019-01-13T01:03:36.887Z,160.97
2019-01-13T01:07:47.453Z,166.83
2019-01-13T01:11:56.713Z,166.77
2019-01-13T01:16:06.083Z,167.20
2019-01-13T01:20:16.655Z,168.03
2019-01-13T01:24:25.882Z,169.83
2019-01-13T01:28:35.182Z,163.10
2019-01-13T01:32:44.467Z,164.20
2019-01-13T01:36:54.335Z,159.07
2019-01-13T01:41:03.656Z,158.90
2019-01-13T01:45:14.332Z,167.83
2019-01-13T01:49:23.564Z,164.37
2019-01-13T01:53:32.825Z,164.83
2019-01-13T01:57:42.066Z,159.63
2019-01-13T02:01:51.304Z,160.47
2019-01-13T02:06:00.531Z,158.40
2019-01-13T02:10:14.753Z,157.23
2019-01-13T02:14:23.970Z,159.63
2019-01-13T02:18:33.192Z,164.10
2019-01-13T02:22:42.413Z,161.53
2019-01-13T02:26:51.645Z,161.80
2019-01-13T02:31:00.911Z,165.70
2019-01-13T02:35:10.122Z,161.67
2019-01-13T02:39:19.349Z,161.63
2019-01-13T02:43:28.598Z,165.37
2019-01-13T02:47:37.863Z,163.33
2019-01-13T02:51:47.103Z,166.93
2019-01-13T02:55:56.326Z,162.70
2019-01-13T03:00:09.284Z,158.93
2019-01-13T03:04:18.509Z,163.60
2019-01-13T03:08:27.849Z,160.57
2019-01-13T03:12:37.401Z,162.30
2019-01-13T03:16:46.653Z,164.13
2019-01-13T03:20:55.883Z,161.23
2019-01-13T03:25:08.651Z,161.43
2019-01-13T03:29:17.920Z,160.93
2019-01-13T03:33:27.170Z,158.40
2019-01-13T03:37:36.427Z,163.27
2019-01-13T03:41:45.660Z,158.30
2019-01-13T03:45:54.871Z,161.70
2019-01-13T03:50:07.535Z,162.20
2019-01-13T03:54:16.775Z,159.90
2019-01-13T03:58:26.037Z,162.43
2019-01-13T04:02:35.254Z,165.87
2019-01-13T04:06:44.491Z,161.00
2019-01-13T04:10:53.743Z,162.20
2019-01-13T04:15:02.979Z,169.70
2019-01-13T04:19:13.322Z,164.93
2019-01-13T04:23:22.552Z,168.37
2019-01-13T04:27:31.840Z,170.27
2019-01-13T04:31:41.050Z,164.73
2019-01-13T04:35:50.388Z,164.40
2019-01-13T04:39:59.620Z,161.17
2019-01-13T04:44:08.856Z,161.63
2019-01-13T04:48:18.105Z,159.83
2019-01-13T04:52:27.333Z,161.80
2019-01-13T04:56:36.571Z,161.13
2019-01-13T05:00:45.824Z,160.67
2019-01-13T05:04:55.043Z,158.77
2019-01-13T05:09:07.096Z,163.90
2019-01-13T05:13:16.806Z,159.97
2019-01-13T05:17:26.018Z,161.40
2019-01-13T05:21:35.280Z,163.37
2019-01-13T05:25:44.475Z,161.63
2019-01-13T05:29:53.707Z,161.40
2019-01-13T05:34:02.927Z,168.93
2019-01-13T05:38:12.161Z,161.23
2019-01-13T05:42:21.400Z,168.33
2019-01-13T05:46:30.644Z,164.70
2019-01-13T05:50:39.871Z,169.37
2019-01-13T05:54:49.157Z,165.13
2019-01-13T05:58:58.383Z,165.37
2019-01-13T06:03:07.678Z,161.30
2019-01-13T06:07:16.895Z,160.47
2019-01-13T06:11:26.135Z,162.33
2019-01-13T06:15:35.345Z,165.83
2019-01-13T06:19:44.576Z,161.70
2019-01-13T06:23:53.820Z,164.50
2019-01-13T06:28:03.085Z,163.17
2019-01-13T06:32:12.291Z,159.27
2019-01-13T06:36:21.509Z,161.13
2019-01-13T06:40:30.909Z,162.33
2019-01-13T06:44:40.238Z,161.87
2019-01-13T06:48:49.491Z,165.40
2019-01-13T06:52:58.754Z,164.80
2019-01-13T06:57:07.976Z,162.03
2019-01-13T07:01:17.225Z,163.43
2019-01-13T07:05:26.455Z,165.03
2019-01-13T07:09:35.683Z,161.67
2019-01-13T07:13:44.919Z,170.27
2019-01-13T07:17:54.148Z,163.13
2019-01-13T07:22:03.380Z,165.87
2019-01-13T07:26:12.623Z,169.27
2019-01-13T07:30:22.445Z,167.53
2019-01-13T07:34:31.793Z,163.90
2019-01-13T07:38:41.036Z,163.27
2019-01-13T07:42:50.264Z,167.20
2019-01-13T07:46:59.857Z,165.33
2019-01-13T07:51:09.098Z,165.17
2019-01-13T07:55:21.317Z,164.83
2019-01-13T07:59:30.517Z,160.47
2019-01-13T08:03:39.739Z,161.77
2019-01-13T08:07:48.986Z,160.90
2019-01-13T08:11:58.217Z,161.97
2019-01-13T08:16:07.445Z,165.70
2019-01-13T08:20:19.713Z,169.97
2019-01-13T08:24:29.134Z,166.80
2019-01-13T08:28:38.483Z,164.00
2019-01-13T08:32:47.704Z,162.37
2019-01-13T08:36:56.952Z,172.80
2019-01-13T08:41:06.164Z,166.13
2019-01-13T08:45:15.459Z,164.33
2019-01-13T08:49:24.789Z,165.73
2019-01-13T08:53:34.341Z,163.57
2019-01-13T08:57:43.619Z,164.23
2019-01-13T09:01:52.859Z,166.83
2019-01-13T09:06:02.114Z,169.10
2019-01-13T09:10:16.692Z,164.83
2019-01-13T09:14:25.907Z,169.20
2019-01-13T09:18:35.152Z,165.57
2019-01-13T09:22:44.390Z,165.33
2019-01-13T09:26:53.615Z,164.30
2019-01-13T09:31:02.861Z,162.00
2019-01-13T09:35:12.086Z,161.87
2019-01-13T09:39:21.301Z,165.47
2019-01-13T09:43:30.530Z,165.03
2019-01-13T09:47:39.855Z,166.70
2019-01-13T09:51:49.185Z,163.03
2019-01-13T09:55:58.671Z,165.43
2019-01-13T10:00:22.862Z,166.03
2019-01-13T10:04:32.106Z,169.70
2019-01-13T10:08:41.348Z,168.37
2019-01-13T10:12:50.604Z,164.60
2019-01-13T10:16:59.910Z,165.17
2019-01-13T10:21:09.598Z,162.70
2019-01-13T10:25:20.455Z,163.43
2019-01-13T10:29:29.680Z,163.77
2019-01-13T10:33:39.293Z,164.03
2019-01-13T10:37:48.545Z,165.43
2019-01-13T10:41:58.191Z,164.03
2019-01-13T10:46:07.563Z,163.20
2019-01-13T10:50:19.600Z,164.03
2019-01-13T10:54:29.078Z,163.80
2019-01-13T10:58:38.278Z,161.63
2019-01-13T11:02:47.546Z,162.40
2019-01-13T11:06:56.784Z,167.60
2019-01-13T11:11:06.078Z,170.13
2019-01-13T11:15:21.510Z,163.00
2019-01-13T11:19:27.758Z,168.50
2019-01-13T11:23:37.455Z,169.10
2019-01-13T11:27:46.878Z,167.97
2019-01-13T11:31:56.692Z,166.50
2019-01-13T11:36:05.951Z,161.90
2019-01-13T11:40:18.478Z,163.20
2019-01-13T11:44:29.433Z,165.67
2019-01-13T11:48:38.641Z,168.73
2019-01-13T11:52:47.946Z,171.03
2019-01-13T11:56:57.191Z,162.00
2019-01-13T12:01:06.889Z,163.90
2019-01-13T12:05:16.200Z,161.97
2019-01-13T12:09:25.513Z,163.37
2019-01-13T12:13:34.933Z,164.03
2019-01-13T12:17:44.471Z,165.60
2019-01-13T12:21:53.731Z,164.03
2019-01-13T12:26:03.392Z,162.13
2019-01-13T12:30:21.683Z,159.80
2019-01-13T12:34:31.041Z,167.63
2019-01-13T12:38:40.280Z,168.40
2019-01-13T12:42:49.878Z,166.30
2019-01-13T12:46:59.137Z,163.50
2019-01-13T12:51:08.415Z,166.53
2019-01-13T12:55:17.644Z,167.93
2019-01-13T12:59:26.864Z,162.83
2019-01-13T13:03:36.149Z,167.10
2019-01-13T13:07:46.670Z,173.37
2019-01-13T13:11:55.902Z,168.27
2019-01-13T13:16:05.658Z,171.23
2019-01-13T13:20:16.060Z,167.07
2019-01-13T13:24:25.422Z,165.43
2019-01-13T13:28:34.649Z,169.17
2019-01-13T13:32:43.918Z,174.40
2019-01-13T13:36:53.160Z,163.50
2019-01-13T13:41:02.503Z,162.43
2019-01-13T13:45:11.859Z,166.67
2019-01-13T13:49:21.180Z,164.20
2019-01-13T13:53:30.384Z,164.13
2019-01-13T13:57:39.919Z,165.43
2019-01-13T14:01:49.136Z,163.83
2019-01-13T14:05:58.377Z,171.13
2019-01-13T14:10:11.233Z,164.00
2019-01-13T14:14:20.678Z,164.03
2019-01-13T14:18:29.918Z,163.83
2019-01-13T14:22:39.241Z,166.10
2019-01-13T14:26:48.461Z,172.83
2019-01-13T14:30:58.012Z,173.57
2019-01-13T14:35:08.448Z,165.43
2019-01-13T14:39:17.684Z,166.07
2019-01-13T14:43:26.957Z,168.20
2019-01-13T14:47:36.195Z,172.03
2019-01-13T14:51:45.452Z,174.67
2019-01-13T14:55:56.240Z,179.30
2019-01-13T15:00:20.286Z,164.60
2019-01-13T15:04:29.584Z,168.43
2019-01-13T15:08:38.809Z,165.57
2019-01-13T15:12:48.050Z,163.67
2019-01-13T15:16:57.339Z,165.67
2019-01-13T17:14:31.225Z,196.80
2019-01-13T17:22:45.471Z,174.93
2019-01-13T17:26:54.710Z,160.85
2019-01-13T17:31:04.578Z,158.93
2019-01-13T17:35:13.791Z,159.00
2019-01-13T17:39:23.041Z,157.52
2019-01-13T17:43:32.274Z,158.80
2019-01-13T17:47:41.550Z,173.72
2019-01-13T17:51:50.925Z,164.20
2019-01-13T17:56:00.681Z,154.07
2019-01-13T18:00:21.991Z,155.12
2019-01-13T18:04:31.267Z,159.87
2019-01-13T18:08:40.514Z,155.57
2019-01-13T18:12:49.747Z,155.63
2019-01-13T18:17:06.233Z,155.97
2019-01-13T18:21:09.847Z,153.55
2019-01-13T18:25:19.061Z,158.23
2019-01-13T18:29:28.283Z,155.10
2019-01-13T18:33:37.502Z,156.63
2019-01-13T18:37:46.746Z,155.60
2019-01-13T18:41:56.001Z,152.55
2019-01-13T18:46:05.241Z,153.60
2019-01-13T18:50:17.069Z,161.63
2019-01-13T18:54:26.713Z,157.62
2019-01-13T18:58:35.956Z,154.03
2019-01-13T19:02:47.274Z,154.93
2019-01-13T19:06:57.195Z,155.50
2019-01-13T19:11:10.075Z,153.90
2019-01-13T19:15:19.292Z,154.83
2019-01-13T19:19:29.243Z,155.32
2019-01-13T19:23:38.804Z,153.93
2019-01-13T19:27:47.983Z,157.37
2019-01-13T19:31:57.970Z,151.90
2019-01-13T19:36:07.332Z,156.32
2019-01-13T19:40:18.539Z,155.73
2019-01-13T19:44:28.666Z,156.37
2019-01-13T19:48:38.556Z,155.03
2019-01-13T19:52:47.929Z,155.03
2019-01-13T19:56:57.162Z,157.07
2019-01-13T20:01:06.422Z,156.10
2019-01-13T20:05:15.792Z,152.83
2019-01-13T20:09:25.194Z,154.60
2019-01-13T20:13:34.395Z,156.15
2019-01-13T20:17:43.628Z,153.78
2019-01-13T20:21:52.851Z,155.85
2019-01-13T20:26:02.201Z,156.40
2019-01-13T20:30:14.827Z,152.35
2019-01-13T20:34:24.019Z,157.70
2019-01-13T20:38:34.566Z,154.82
2019-01-13T20:42:43.958Z,155.43
2019-01-13T20:46:53.155Z,154.72
2019-01-13T20:51:02.429Z,152.65
2019-01-13T20:55:14.364Z,154.80
2019-01-13T20:59:23.612Z,153.82
2019-01-13T21:03:32.825Z,155.87
2019-01-13T21:07:42.410Z,153.57
2019-01-13T21:11:51.737Z,157.52
2019-01-13T21:16:00.984Z,157.12
2019-01-13T21:20:10.633Z,157.12
2019-01-13T21:24:19.868Z,155.35
2019-01-13T21:28:29.259Z,154.27
2019-01-13T21:32:38.513Z,153.40
2019-01-13T21:36:47.763Z,150.00
2019-01-13T21:40:57.000Z,155.97
2019-01-13T21:45:09.723Z,151.90
2019-01-13T21:49:18.966Z,153.12
2019-01-13T21:53:28.346Z,152.70
2019-01-13T21:57:37.574Z,155.80
2019-01-13T22:01:46.823Z,156.65
2019-01-13T22:05:56.076Z,152.87
2019-01-13T22:10:11.219Z,154.63
2019-01-13T22:14:20.420Z,152.60
2019-01-13T22:18:29.694Z,153.07
2019-01-13T22:22:38.934Z,155.30
2019-01-13T22:26:48.160Z,155.43
2019-01-13T22:30:57.391Z,152.00
2019-01-13T22:35:06.665Z,155.67
2019-01-13T22:39:15.905Z,161.55
2019-01-13T22:43:26.304Z,158.20
2019-01-13T22:47:35.530Z,153.75
2019-01-13T22:51:44.772Z,152.60
2019-01-13T22:55:53.971Z,154.07
2019-01-13T23:00:27.273Z,153.65
2019-01-13T23:04:36.514Z,154.85
2019-01-13T23:08:45.729Z,153.47
2019-01-13T23:12:54.979Z,154.57
2019-01-13T23:17:04.217Z,158.20
2019-01-13T23:21:13.728Z,159.65
2019-01-13T23:25:22.993Z,155.32
2019-01-13T23:29:32.216Z,154.35
2019-01-13T23:33:41.401Z,161.00
2019-01-13T23:37:50.675Z,157.05
2019-01-13T23:41:59.906Z,154.10
2019-01-13T23:46:09.162Z,155.57
2019-01-13T23:50:18.399Z,157.77
2019-01-13T23:54:27.617Z,157.80
2019-01-13T23:58:36.851Z,151.63
